sensor_id;sensor_type;location;lat;lon;timestamp;temperature;humidity
25112;DHT22;13092;51.996;4.458;2024-02-21T00:00:05;10.90;99.90
25112;DHT22;13092;51.996;4.458;2024-02-21T00:02:33;10.80;99.90
25112;DHT22;13092;51.996;4.458;2024-02-21T00:05:01;10.90;99.90
25112;DHT22;13092;51.996;4.458;2024-02-21T00:07:30;10.80;99.90
25112;DHT22;13092;51.996;4.458;2024-02-21T00:09:58;10.80;99.90
25112;DHT22;13092;51.996;4.458;2024-02-21T00:12:28;10.80;99.90
25112;DHT22;13092;51.996;4.458;2024-02-21T00:14:56;10.80;99.90
25112;DHT22;13092;51.996;4.458;2024-02-21T00:17:27;10.80;99.90
25112;DHT22;13092;51.996;4.458;2024-02-21T00:19:56;10.80;99.90
25112;DHT22;13092;51.996;4.458;2024-02-21T00:22:24;10.80;99.90
25112;DHT22;13092;51.996;4.458;2024-02-21T00:24:55;10.80;99.90
25112;DHT22;13092;51.996;4.458;2024-02-21T00:27:24;10.90;99.90
25112;DHT22;13092;51.996;4.458;2024-02-21T00:29:54;10.80;99.90
25112;DHT22;13092;51.996;4.458;2024-02-21T00:32:22;10.80;99.90
25112;DHT22;13092;51.996;4.458;2024-02-21T00:34:51;10.80;99.90
25112;DHT22;13092;51.996;4.458;2024-02-21T00:37:19;10.90;99.90
25112;DHT22;13092;51.996;4.458;2024-02-21T00:39:47;11.00;99.90
25112;DHT22;13092;51.996;4.458;2024-02-21T00:42:15;10.90;99.90
25112;DHT22;13092;51.996;4.458;2024-02-21T00:44:43;10.80;99.90
25112;DHT22;13092;51.996;4.458;2024-02-21T00:47:12;10.90;99.90
25112;DHT22;13092;51.996;4.458;2024-02-21T00:49:41;10.90;99.90
25112;DHT22;13092;51.996;4.458;2024-02-21T00:52:14;11.00;99.90
25112;DHT22;13092;51.996;4.458;2024-02-21T00:54:45;10.80;99.90
25112;DHT22;13092;51.996;4.458;2024-02-21T00:57:20;10.80;99.90
25112;DHT22;13092;51.996;4.458;2024-02-21T00:59:48;10.90;99.90
25112;DHT22;13092;51.996;4.458;2024-02-21T01:02:17;10.80;99.90
25112;DHT22;13092;51.996;4.458;2024-02-21T01:04:45;10.80;99.90
25112;DHT22;13092;51.996;4.458;2024-02-21T01:07:14;10.80;99.90
25112;DHT22;13092;51.996;4.458;2024-02-21T01:09:42;10.80;99.90
25112;DHT22;13092;51.996;4.458;2024-02-21T01:12:10;10.90;99.90
25112;DHT22;13092;51.996;4.458;2024-02-21T01:14:38;10.90;99.90
25112;DHT22;13092;51.996;4.458;2024-02-21T01:17:06;10.80;99.90
25112;DHT22;13092;51.996;4.458;2024-02-21T01:19:36;11.10;99.90
25112;DHT22;13092;51.996;4.458;2024-02-21T01:22:04;10.90;99.90
25112;DHT22;13092;51.996;4.458;2024-02-21T01:24:32;11.60;99.90
25112;DHT22;13092;51.996;4.458;2024-02-21T01:27:01;11.10;99.90
25112;DHT22;13092;51.996;4.458;2024-02-21T01:29:29;10.90;99.90
25112;DHT22;13092;51.996;4.458;2024-02-21T01:31:57;11.60;99.90
25112;DHT22;13092;51.996;4.458;2024-02-21T01:34:26;10.90;99.90
25112;DHT22;13092;51.996;4.458;2024-02-21T01:36:59;10.90;99.90
25112;DHT22;13092;51.996;4.458;2024-02-21T01:39:31;11.40;99.90
25112;DHT22;13092;51.996;4.458;2024-02-21T01:41:59;10.90;99.90
25112;DHT22;13092;51.996;4.458;2024-02-21T01:44:27;10.90;99.90
25112;DHT22;13092;51.996;4.458;2024-02-21T01:46:56;10.90;99.90
25112;DHT22;13092;51.996;4.458;2024-02-21T01:49:24;11.10;99.90
25112;DHT22;13092;51.996;4.458;2024-02-21T01:51:52;11.10;99.90
25112;DHT22;13092;51.996;4.458;2024-02-21T01:54:22;10.90;99.90
25112;DHT22;13092;51.996;4.458;2024-02-21T01:56:51;10.90;99.90
25112;DHT22;13092;51.996;4.458;2024-02-21T01:59:21;10.90;99.90
25112;DHT22;13092;51.996;4.458;2024-02-21T02:01:50;11.00;99.90
25112;DHT22;13092;51.996;4.458;2024-02-21T02:04:20;11.30;99.90
25112;DHT22;13092;51.996;4.458;2024-02-21T02:06:48;10.80;99.90
25112;DHT22;13092;51.996;4.458;2024-02-21T02:09:18;10.90;99.90
25112;DHT22;13092;51.996;4.458;2024-02-21T02:11:47;11.10;99.90
25112;DHT22;13092;51.996;4.458;2024-02-21T02:14:15;11.30;99.90
25112;DHT22;13092;51.996;4.458;2024-02-21T02:16:46;10.80;99.90
25112;DHT22;13092;51.996;4.458;2024-02-21T02:19:14;11.10;99.90
25112;DHT22;13092;51.996;4.458;2024-02-21T02:21:46;11.10;99.90
25112;DHT22;13092;51.996;4.458;2024-02-21T02:24:22;10.80;99.90
25112;DHT22;13092;51.996;4.458;2024-02-21T02:26:51;10.80;99.90
25112;DHT22;13092;51.996;4.458;2024-02-21T02:29:19;10.90;99.90
25112;DHT22;13092;51.996;4.458;2024-02-21T02:31:49;10.90;99.90
25112;DHT22;13092;51.996;4.458;2024-02-21T02:34:17;10.90;99.90
25112;DHT22;13092;51.996;4.458;2024-02-21T02:36:45;10.90;99.90
25112;DHT22;13092;51.996;4.458;2024-02-21T02:39:23;10.80;99.90
25112;DHT22;13092;51.996;4.458;2024-02-21T02:41:51;10.80;99.90
25112;DHT22;13092;51.996;4.458;2024-02-21T02:44:19;10.80;99.90
25112;DHT22;13092;51.996;4.458;2024-02-21T02:46:48;10.80;99.90
25112;DHT22;13092;51.996;4.458;2024-02-21T02:49:16;10.80;99.90
25112;DHT22;13092;51.996;4.458;2024-02-21T02:51:44;10.80;99.90
25112;DHT22;13092;51.996;4.458;2024-02-21T02:54:12;10.90;99.90
25112;DHT22;13092;51.996;4.458;2024-02-21T02:56:42;10.80;99.90
25112;DHT22;13092;51.996;4.458;2024-02-21T02:59:10;10.80;99.90
25112;DHT22;13092;51.996;4.458;2024-02-21T03:01:38;10.80;99.90
25112;DHT22;13092;51.996;4.458;2024-02-21T03:04:06;10.80;99.90
25112;DHT22;13092;51.996;4.458;2024-02-21T03:06:34;10.70;99.90
25112;DHT22;13092;51.996;4.458;2024-02-21T03:09:03;11.00;99.90
25112;DHT22;13092;51.996;4.458;2024-02-21T03:11:36;10.80;99.90
25112;DHT22;13092;51.996;4.458;2024-02-21T03:14:08;10.80;99.90
25112;DHT22;13092;51.996;4.458;2024-02-21T03:16:37;10.80;99.90
25112;DHT22;13092;51.996;4.458;2024-02-21T03:19:05;10.80;99.90
25112;DHT22;13092;51.996;4.458;2024-02-21T03:21:34;10.80;99.90
25112;DHT22;13092;51.996;4.458;2024-02-21T03:24:02;10.90;99.90
25112;DHT22;13092;51.996;4.458;2024-02-21T03:26:30;10.90;99.90
25112;DHT22;13092;51.996;4.458;2024-02-21T03:28:58;11.60;99.90
25112;DHT22;13092;51.996;4.458;2024-02-21T03:31:28;10.80;99.90
25112;DHT22;13092;51.996;4.458;2024-02-21T03:33:58;10.80;99.90
25112;DHT22;13092;51.996;4.458;2024-02-21T03:36:26;10.70;99.90
25112;DHT22;13092;51.996;4.458;2024-02-21T03:38:54;10.80;99.90
25112;DHT22;13092;51.996;4.458;2024-02-21T03:41:23;11.30;99.90
25112;DHT22;13092;51.996;4.458;2024-02-21T03:43:51;10.80;99.90
25112;DHT22;13092;51.996;4.458;2024-02-21T03:46:19;11.40;99.90
25112;DHT22;13092;51.996;4.458;2024-02-21T03:48:51;11.00;99.90
25112;DHT22;13092;51.996;4.458;2024-02-21T03:51:21;10.80;99.90
25112;DHT22;13092;51.996;4.458;2024-02-21T03:53:49;10.90;99.90
25112;DHT22;13092;51.996;4.458;2024-02-21T03:56:18;10.60;99.90
25112;DHT22;13092;51.996;4.458;2024-02-21T03:58:46;10.90;99.90
25112;DHT22;13092;51.996;4.458;2024-02-21T04:01:15;10.90;99.90
25112;DHT22;13092;51.996;4.458;2024-02-21T04:03:44;10.90;99.90
25112;DHT22;13092;51.996;4.458;2024-02-21T04:06:13;10.90;99.90
25112;DHT22;13092;51.996;4.458;2024-02-21T04:08:44;10.90;99.90
25112;DHT22;13092;51.996;4.458;2024-02-21T04:11:13;10.90;99.90
25112;DHT22;13092;51.996;4.458;2024-02-21T04:13:41;11.00;99.90
25112;DHT22;13092;51.996;4.458;2024-02-21T04:16:10;10.80;99.90
25112;DHT22;13092;51.996;4.458;2024-02-21T04:18:39;11.00;99.90
25112;DHT22;13092;51.996;4.458;2024-02-21T04:21:07;10.80;99.90
25112;DHT22;13092;51.996;4.458;2024-02-21T04:23:37;11.00;99.90
25112;DHT22;13092;51.996;4.458;2024-02-21T04:26:05;11.10;99.90
25112;DHT22;13092;51.996;4.458;2024-02-21T04:28:33;11.10;99.90
25112;DHT22;13092;51.996;4.458;2024-02-21T04:31:01;10.80;99.90
25112;DHT22;13092;51.996;4.458;2024-02-21T04:33:35;10.80;99.90
25112;DHT22;13092;51.996;4.458;2024-02-21T04:36:04;10.80;99.90
25112;DHT22;13092;51.996;4.458;2024-02-21T04:38:32;10.80;99.90
25112;DHT22;13092;51.996;4.458;2024-02-21T04:41:01;10.80;99.90
25112;DHT22;13092;51.996;4.458;2024-02-21T04:43:29;10.80;99.90
25112;DHT22;13092;51.996;4.458;2024-02-21T04:45:57;10.70;99.90
25112;DHT22;13092;51.996;4.458;2024-02-21T04:48:26;10.70;99.90
25112;DHT22;13092;51.996;4.458;2024-02-21T04:50:54;11.00;99.90
25112;DHT22;13092;51.996;4.458;2024-02-21T04:53:22;10.90;99.90
25112;DHT22;13092;51.996;4.458;2024-02-21T04:55:50;10.60;99.90
25112;DHT22;13092;51.996;4.458;2024-02-21T04:58:20;10.70;99.90
25112;DHT22;13092;51.996;4.458;2024-02-21T05:00:48;10.70;99.90
25112;DHT22;13092;51.996;4.458;2024-02-21T05:03:16;10.70;99.90
25112;DHT22;13092;51.996;4.458;2024-02-21T05:05:44;10.70;99.90
25112;DHT22;13092;51.996;4.458;2024-02-21T05:08:13;10.70;99.90
25112;DHT22;13092;51.996;4.458;2024-02-21T05:10:41;10.70;99.90
25112;DHT22;13092;51.996;4.458;2024-02-21T05:13:10;10.70;99.90
25112;DHT22;13092;51.996;4.458;2024-02-21T05:15:39;10.70;99.90
25112;DHT22;13092;51.996;4.458;2024-02-21T05:18:08;10.70;99.90
25112;DHT22;13092;51.996;4.458;2024-02-21T05:20:36;10.70;99.90
25112;DHT22;13092;51.996;4.458;2024-02-21T05:23:04;10.90;99.90
25112;DHT22;13092;51.996;4.458;2024-02-21T05:25:33;11.10;99.90
25112;DHT22;13092;51.996;4.458;2024-02-21T05:28:02;10.70;99.90
25112;DHT22;13092;51.996;4.458;2024-02-21T05:30:33;10.70;99.90
25112;DHT22;13092;51.996;4.458;2024-02-21T05:33:06;10.70;99.90
25112;DHT22;13092;51.996;4.458;2024-02-21T05:35:37;10.70;99.90
25112;DHT22;13092;51.996;4.458;2024-02-21T05:38:06;10.90;99.90
25112;DHT22;13092;51.996;4.458;2024-02-21T05:40:38;10.70;99.90
25112;DHT22;13092;51.996;4.458;2024-02-21T05:43:07;10.80;99.90
25112;DHT22;13092;51.996;4.458;2024-02-21T05:45:35;10.70;99.90
25112;DHT22;13092;51.996;4.458;2024-02-21T05:48:06;10.70;99.90
25112;DHT22;13092;51.996;4.458;2024-02-21T05:50:36;10.70;99.90
25112;DHT22;13092;51.996;4.458;2024-02-21T05:53:04;10.70;99.90
25112;DHT22;13092;51.996;4.458;2024-02-21T05:55:33;10.90;99.90
25112;DHT22;13092;51.996;4.458;2024-02-21T05:58:01;10.60;99.90
25112;DHT22;13092;51.996;4.458;2024-02-21T06:00:30;10.60;99.90
25112;DHT22;13092;51.996;4.458;2024-02-21T06:02:58;10.60;99.90
25112;DHT22;13092;51.996;4.458;2024-02-21T06:05:28;10.60;99.90
25112;DHT22;13092;51.996;4.458;2024-02-21T06:07:58;10.80;99.90
25112;DHT22;13092;51.996;4.458;2024-02-21T06:10:26;10.60;99.90
25112;DHT22;13092;51.996;4.458;2024-02-21T06:12:54;10.70;99.90
25112;DHT22;13092;51.996;4.458;2024-02-21T06:15:22;10.80;99.90
25112;DHT22;13092;51.996;4.458;2024-02-21T06:17:50;10.30;99.90
25112;DHT22;13092;51.996;4.458;2024-02-21T06:20:19;10.70;99.90
25112;DHT22;13092;51.996;4.458;2024-02-21T06:22:48;10.70;99.90
25112;DHT22;13092;51.996;4.458;2024-02-21T06:25:17;10.60;99.90
25112;DHT22;13092;51.996;4.458;2024-02-21T06:27:46;10.50;99.90
25112;DHT22;13092;51.996;4.458;2024-02-21T06:30:20;10.50;99.90
25112;DHT22;13092;51.996;4.458;2024-02-21T06:32:50;10.50;99.90
25112;DHT22;13092;51.996;4.458;2024-02-21T06:35:19;10.50;99.90
25112;DHT22;13092;51.996;4.458;2024-02-21T06:37:48;10.50;99.90
25112;DHT22;13092;51.996;4.458;2024-02-21T06:40:20;10.60;99.90
25112;DHT22;13092;51.996;4.458;2024-02-21T06:42:48;10.50;99.90
25112;DHT22;13092;51.996;4.458;2024-02-21T06:45:17;10.50;99.90
25112;DHT22;13092;51.996;4.458;2024-02-21T06:47:45;10.50;99.90
25112;DHT22;13092;51.996;4.458;2024-02-21T06:50:15;10.60;99.90
25112;DHT22;13092;51.996;4.458;2024-02-21T06:52:44;10.50;99.90
25112;DHT22;13092;51.996;4.458;2024-02-21T06:55:13;11.30;99.90
25112;DHT22;13092;51.996;4.458;2024-02-21T06:57:42;10.80;99.90
25112;DHT22;13092;51.996;4.458;2024-02-21T07:00:12;10.50;99.90
25112;DHT22;13092;51.996;4.458;2024-02-21T07:02:40;10.60;99.90
25112;DHT22;13092;51.996;4.458;2024-02-21T07:05:08;10.60;99.90
25112;DHT22;13092;51.996;4.458;2024-02-21T07:07:37;10.60;99.90
25112;DHT22;13092;51.996;4.458;2024-02-21T07:10:07;10.60;99.90
25112;DHT22;13092;51.996;4.458;2024-02-21T07:12:37;10.60;99.90
25112;DHT22;13092;51.996;4.458;2024-02-21T07:15:08;10.90;99.90
25112;DHT22;13092;51.996;4.458;2024-02-21T07:17:37;10.60;99.90
25112;DHT22;13092;51.996;4.458;2024-02-21T07:20:06;10.60;99.90
25112;DHT22;13092;51.996;4.458;2024-02-21T07:22:36;10.70;99.90
25112;DHT22;13092;51.996;4.458;2024-02-21T07:25:06;10.70;99.90
25112;DHT22;13092;51.996;4.458;2024-02-21T07:27:34;10.70;99.90
25112;DHT22;13092;51.996;4.458;2024-02-21T07:30:05;10.70;99.90
25112;DHT22;13092;51.996;4.458;2024-02-21T07:32:34;10.60;99.90
25112;DHT22;13092;51.996;4.458;2024-02-21T07:35:02;10.90;99.90
25112;DHT22;13092;51.996;4.458;2024-02-21T07:37:30;10.70;99.90
25112;DHT22;13092;51.996;4.458;2024-02-21T07:39:59;10.70;99.90
25112;DHT22;13092;51.996;4.458;2024-02-21T07:42:27;10.90;99.90
25112;DHT22;13092;51.996;4.458;2024-02-21T07:44:55;10.60;99.90
25112;DHT22;13092;51.996;4.458;2024-02-21T07:47:25;10.80;99.90
25112;DHT22;13092;51.996;4.458;2024-02-21T07:49:53;10.60;99.90
25112;DHT22;13092;51.996;4.458;2024-02-21T07:52:21;11.50;99.90
25112;DHT22;13092;51.996;4.458;2024-02-21T07:54:49;10.70;99.90
25112;DHT22;13092;51.996;4.458;2024-02-21T07:57:17;10.60;99.90
25112;DHT22;13092;51.996;4.458;2024-02-21T07:59:45;10.60;99.90
25112;DHT22;13092;51.996;4.458;2024-02-21T08:02:14;10.90;99.90
25112;DHT22;13092;51.996;4.458;2024-02-21T08:04:44;10.80;99.90
25112;DHT22;13092;51.996;4.458;2024-02-21T08:07:12;10.70;99.90
25112;DHT22;13092;51.996;4.458;2024-02-21T08:09:40;10.60;99.90
25112;DHT22;13092;51.996;4.458;2024-02-21T08:12:08;10.60;99.90
25112;DHT22;13092;51.996;4.458;2024-02-21T08:14:36;10.60;99.90
25112;DHT22;13092;51.996;4.458;2024-02-21T08:17:04;10.60;99.90
25112;DHT22;13092;51.996;4.458;2024-02-21T08:19:35;10.50;99.90
25112;DHT22;13092;51.996;4.458;2024-02-21T08:22:05;10.70;99.90
25112;DHT22;13092;51.996;4.458;2024-02-21T08:24:33;10.70;99.90
25112;DHT22;13092;51.996;4.458;2024-02-21T08:27:02;10.20;99.90
25112;DHT22;13092;51.996;4.458;2024-02-21T08:29:30;10.50;99.90
25112;DHT22;13092;51.996;4.458;2024-02-21T08:31:58;10.60;99.90
25112;DHT22;13092;51.996;4.458;2024-02-21T08:34:26;10.60;99.90
25112;DHT22;13092;51.996;4.458;2024-02-21T08:36:59;10.60;99.90
25112;DHT22;13092;51.996;4.458;2024-02-21T08:39:28;10.60;99.90
25112;DHT22;13092;51.996;4.458;2024-02-21T08:41:57;10.60;99.90
25112;DHT22;13092;51.996;4.458;2024-02-21T08:44:27;10.50;99.90
25112;DHT22;13092;51.996;4.458;2024-02-21T08:46:55;10.50;99.90
25112;DHT22;13092;51.996;4.458;2024-02-21T08:49:24;10.50;99.90
25112;DHT22;13092;51.996;4.458;2024-02-21T08:52:00;10.60;99.90
25112;DHT22;13092;51.996;4.458;2024-02-21T08:54:31;10.50;99.90
25112;DHT22;13092;51.996;4.458;2024-02-21T08:56:59;10.50;99.90
25112;DHT22;13092;51.996;4.458;2024-02-21T08:59:27;10.60;99.90
25112;DHT22;13092;51.996;4.458;2024-02-21T09:01:55;10.70;99.90
25112;DHT22;13092;51.996;4.458;2024-02-21T09:04:23;10.60;99.90
25112;DHT22;13092;51.996;4.458;2024-02-21T09:06:52;10.80;99.90
25112;DHT22;13092;51.996;4.458;2024-02-21T09:09:20;10.70;99.90
25112;DHT22;13092;51.996;4.458;2024-02-21T09:11:49;10.70;99.90
25112;DHT22;13092;51.996;4.458;2024-02-21T09:14:18;10.90;99.90
25112;DHT22;13092;51.996;4.458;2024-02-21T09:16:46;10.70;99.90
25112;DHT22;13092;51.996;4.458;2024-02-21T09:19:14;11.00;99.90
25112;DHT22;13092;51.996;4.458;2024-02-21T09:21:45;10.80;99.90
25112;DHT22;13092;51.996;4.458;2024-02-21T09:24:13;10.80;99.90
25112;DHT22;13092;51.996;4.458;2024-02-21T09:26:51;10.90;99.90
25112;DHT22;13092;51.996;4.458;2024-02-21T09:29:19;10.90;99.90
25112;DHT22;13092;51.996;4.458;2024-02-21T09:31:52;11.60;99.90
25112;DHT22;13092;51.996;4.458;2024-02-21T09:34:21;10.90;99.90
25112;DHT22;13092;51.996;4.458;2024-02-21T09:36:52;10.60;99.90
25112;DHT22;13092;51.996;4.458;2024-02-21T09:39:20;10.90;99.90
25112;DHT22;13092;51.996;4.458;2024-02-21T09:41:56;11.00;99.90
25112;DHT22;13092;51.996;4.458;2024-02-21T09:44:35;11.00;99.90
25112;DHT22;13092;51.996;4.458;2024-02-21T09:47:10;11.00;99.90
25112;DHT22;13092;51.996;4.458;2024-02-21T09:49:40;11.00;99.90
25112;DHT22;13092;51.996;4.458;2024-02-21T09:52:14;11.10;99.90
25112;DHT22;13092;51.996;4.458;2024-02-21T09:54:44;11.10;99.90
25112;DHT22;13092;51.996;4.458;2024-02-21T09:57:18;11.10;99.90
25112;DHT22;13092;51.996;4.458;2024-02-21T09:59:47;11.10;99.90
25112;DHT22;13092;51.996;4.458;2024-02-21T10:02:16;11.10;99.90
25112;DHT22;13092;51.996;4.458;2024-02-21T10:04:47;11.30;99.90
25112;DHT22;13092;51.996;4.458;2024-02-21T10:07:15;11.20;99.90
25112;DHT22;13092;51.996;4.458;2024-02-21T10:09:43;11.20;99.90
25112;DHT22;13092;51.996;4.458;2024-02-21T10:12:16;11.20;99.90
25112;DHT22;13092;51.996;4.458;2024-02-21T10:14:46;11.30;99.90
25112;DHT22;13092;51.996;4.458;2024-02-21T10:17:16;11.30;99.90
25112;DHT22;13092;51.996;4.458;2024-02-21T10:19:48;11.40;99.90
25112;DHT22;13092;51.996;4.458;2024-02-21T10:22:19;11.40;99.90
25112;DHT22;13092;51.996;4.458;2024-02-21T10:24:52;11.30;99.90
25112;DHT22;13092;51.996;4.458;2024-02-21T10:27:23;11.30;99.90
25112;DHT22;13092;51.996;4.458;2024-02-21T10:29:51;11.50;99.90
25112;DHT22;13092;51.996;4.458;2024-02-21T10:32:19;11.30;99.90
25112;DHT22;13092;51.996;4.458;2024-02-21T10:34:49;11.30;99.90
25112;DHT22;13092;51.996;4.458;2024-02-21T10:37:21;11.30;99.90
25112;DHT22;13092;51.996;4.458;2024-02-21T10:39:49;11.30;99.90
25112;DHT22;13092;51.996;4.458;2024-02-21T10:42:22;11.40;99.90
25112;DHT22;13092;51.996;4.458;2024-02-21T10:44:51;11.30;99.90
25112;DHT22;13092;51.996;4.458;2024-02-21T10:47:21;11.50;99.90
25112;DHT22;13092;51.996;4.458;2024-02-21T10:49:59;12.00;99.90
25112;DHT22;13092;51.996;4.458;2024-02-21T10:52:38;11.30;99.90
25112;DHT22;13092;51.996;4.458;2024-02-21T10:55:10;11.30;99.90
25112;DHT22;13092;51.996;4.458;2024-02-21T10:57:46;11.40;99.90
25112;DHT22;13092;51.996;4.458;2024-02-21T11:00:15;11.20;99.90
25112;DHT22;13092;51.996;4.458;2024-02-21T11:02:48;11.30;99.90
25112;DHT22;13092;51.996;4.458;2024-02-21T11:05:20;11.40;99.90
25112;DHT22;13092;51.996;4.458;2024-02-21T11:07:48;11.40;99.90
25112;DHT22;13092;51.996;4.458;2024-02-21T11:10:23;11.60;99.90
25112;DHT22;13092;51.996;4.458;2024-02-21T11:13:04;11.50;99.90
25112;DHT22;13092;51.996;4.458;2024-02-21T11:15:32;11.60;99.90
25112;DHT22;13092;51.996;4.458;2024-02-21T11:18:02;11.60;99.90
25112;DHT22;13092;51.996;4.458;2024-02-21T11:20:34;11.60;99.90
25112;DHT22;13092;51.996;4.458;2024-02-21T11:23:04;11.60;99.90
25112;DHT22;13092;51.996;4.458;2024-02-21T11:25:37;11.60;99.90
25112;DHT22;13092;51.996;4.458;2024-02-21T11:28:25;11.70;99.90
25112;DHT22;13092;51.996;4.458;2024-02-21T11:31:08;11.70;99.90
25112;DHT22;13092;51.996;4.458;2024-02-21T11:33:39;11.80;99.90
25112;DHT22;13092;51.996;4.458;2024-02-21T11:36:08;11.80;99.90
25112;DHT22;13092;51.996;4.458;2024-02-21T11:38:36;11.80;99.90
25112;DHT22;13092;51.996;4.458;2024-02-21T11:41:08;12.00;99.90
25112;DHT22;13092;51.996;4.458;2024-02-21T11:43:41;12.10;99.90
25112;DHT22;13092;51.996;4.458;2024-02-21T11:46:09;12.00;99.90
25112;DHT22;13092;51.996;4.458;2024-02-21T11:48:41;11.90;99.90
25112;DHT22;13092;51.996;4.458;2024-02-21T11:51:10;11.90;99.90
25112;DHT22;13092;51.996;4.458;2024-02-21T11:53:38;11.90;99.90
25112;DHT22;13092;51.996;4.458;2024-02-21T11:56:23;12.00;99.90
25112;DHT22;13092;51.996;4.458;2024-02-21T11:58:53;11.90;99.90
25112;DHT22;13092;51.996;4.458;2024-02-21T12:01:21;11.90;99.90
25112;DHT22;13092;51.996;4.458;2024-02-21T12:03:50;11.90;99.90
25112;DHT22;13092;51.996;4.458;2024-02-21T12:06:18;11.90;99.90
25112;DHT22;13092;51.996;4.458;2024-02-21T12:08:48;11.90;99.90
25112;DHT22;13092;51.996;4.458;2024-02-21T12:11:20;11.90;99.90
25112;DHT22;13092;51.996;4.458;2024-02-21T12:13:59;12.20;99.90
25112;DHT22;13092;51.996;4.458;2024-02-21T12:16:30;11.80;99.90
25112;DHT22;13092;51.996;4.458;2024-02-21T12:18:59;11.80;99.90
25112;DHT22;13092;51.996;4.458;2024-02-21T12:21:30;11.80;99.90
25112;DHT22;13092;51.996;4.458;2024-02-21T12:23:59;11.80;99.90
25112;DHT22;13092;51.996;4.458;2024-02-21T12:26:31;11.70;99.90
25112;DHT22;13092;51.996;4.458;2024-02-21T12:29:03;11.70;99.90
25112;DHT22;13092;51.996;4.458;2024-02-21T12:31:32;11.70;99.90
25112;DHT22;13092;51.996;4.458;2024-02-21T12:34:00;11.70;99.90
25112;DHT22;13092;51.996;4.458;2024-02-21T12:36:28;11.60;99.90
25112;DHT22;13092;51.996;4.458;2024-02-21T12:38:57;11.60;99.90
25112;DHT22;13092;51.996;4.458;2024-02-21T12:41:25;11.70;99.90
25112;DHT22;13092;51.996;4.458;2024-02-21T12:43:53;11.80;99.90
25112;DHT22;13092;51.996;4.458;2024-02-21T12:46:24;11.60;99.90
25112;DHT22;13092;51.996;4.458;2024-02-21T12:48:52;11.50;99.90
25112;DHT22;13092;51.996;4.458;2024-02-21T12:51:21;11.30;99.90
25112;DHT22;13092;51.996;4.458;2024-02-21T12:53:49;12.00;99.90
25112;DHT22;13092;51.996;4.458;2024-02-21T12:56:17;11.30;99.90
25112;DHT22;13092;51.996;4.458;2024-02-21T12:58:45;11.60;99.90
25112;DHT22;13092;51.996;4.458;2024-02-21T13:01:14;11.50;99.90
25112;DHT22;13092;51.996;4.458;2024-02-21T13:03:43;11.50;99.90
25112;DHT22;13092;51.996;4.458;2024-02-21T13:06:13;11.40;99.90
25112;DHT22;13092;51.996;4.458;2024-02-21T13:08:41;11.40;99.90
25112;DHT22;13092;51.996;4.458;2024-02-21T13:11:11;11.40;99.90
25112;DHT22;13092;51.996;4.458;2024-02-21T13:13:40;11.30;99.90
25112;DHT22;13092;51.996;4.458;2024-02-21T13:16:08;11.40;99.90
25112;DHT22;13092;51.996;4.458;2024-02-21T13:18:37;11.40;99.90
25112;DHT22;13092;51.996;4.458;2024-02-21T13:21:08;11.40;99.90
25112;DHT22;13092;51.996;4.458;2024-02-21T13:23:36;11.30;99.90
25112;DHT22;13092;51.996;4.458;2024-02-21T13:26:04;11.40;99.90
25112;DHT22;13092;51.996;4.458;2024-02-21T13:28:32;12.00;99.90
25112;DHT22;13092;51.996;4.458;2024-02-21T13:31:00;11.30;99.90
25112;DHT22;13092;51.996;4.458;2024-02-21T13:33:29;11.40;99.90
25112;DHT22;13092;51.996;4.458;2024-02-21T13:35:58;11.50;99.90
25112;DHT22;13092;51.996;4.458;2024-02-21T13:38:27;11.30;99.90
25112;DHT22;13092;51.996;4.458;2024-02-21T13:40:55;11.30;99.90
25112;DHT22;13092;51.996;4.458;2024-02-21T13:43:24;11.30;99.90
25112;DHT22;13092;51.996;4.458;2024-02-21T13:45:56;11.50;99.90
25112;DHT22;13092;51.996;4.458;2024-02-21T13:48:25;11.30;99.90
25112;DHT22;13092;51.996;4.458;2024-02-21T13:50:54;11.30;99.90
25112;DHT22;13092;51.996;4.458;2024-02-21T13:53:22;11.30;99.90
25112;DHT22;13092;51.996;4.458;2024-02-21T13:55:57;11.40;99.90
25112;DHT22;13092;51.996;4.458;2024-02-21T13:58:28;11.30;99.90
25112;DHT22;13092;51.996;4.458;2024-02-21T14:00:56;11.30;99.90
25112;DHT22;13092;51.996;4.458;2024-02-21T14:03:26;11.30;99.90
25112;DHT22;13092;51.996;4.458;2024-02-21T14:05:56;11.20;99.90
25112;DHT22;13092;51.996;4.458;2024-02-21T14:08:25;11.40;99.90
25112;DHT22;13092;51.996;4.458;2024-02-21T14:10:55;11.20;99.90
25112;DHT22;13092;51.996;4.458;2024-02-21T14:13:26;11.10;99.90
25112;DHT22;13092;51.996;4.458;2024-02-21T14:15:55;11.10;99.90
25112;DHT22;13092;51.996;4.458;2024-02-21T14:18:24;11.10;99.90
25112;DHT22;13092;51.996;4.458;2024-02-21T14:20:53;11.00;99.90
25112;DHT22;13092;51.996;4.458;2024-02-21T14:23:21;11.00;99.90
25112;DHT22;13092;51.996;4.458;2024-02-21T14:25:49;11.00;99.90
25112;DHT22;13092;51.996;4.458;2024-02-21T14:28:19;11.00;99.90
25112;DHT22;13092;51.996;4.458;2024-02-21T14:30:49;11.00;99.90
25112;DHT22;13092;51.996;4.458;2024-02-21T14:33:20;11.70;99.90
25112;DHT22;13092;51.996;4.458;2024-02-21T14:35:48;11.00;99.90
25112;DHT22;13092;51.996;4.458;2024-02-21T14:38:19;11.10;99.90
25112;DHT22;13092;51.996;4.458;2024-02-21T14:40:47;10.90;99.90
25112;DHT22;13092;51.996;4.458;2024-02-21T14:43:15;10.90;99.90
25112;DHT22;13092;51.996;4.458;2024-02-21T14:45:46;10.90;99.90
25112;DHT22;13092;51.996;4.458;2024-02-21T14:48:14;10.90;99.90
25112;DHT22;13092;51.996;4.458;2024-02-21T14:50:43;11.40;99.90
25112;DHT22;13092;51.996;4.458;2024-02-21T14:53:11;11.00;99.90
25112;DHT22;13092;51.996;4.458;2024-02-21T14:55:40;10.80;99.90
25112;DHT22;13092;51.996;4.458;2024-02-21T14:58:09;10.80;99.90
25112;DHT22;13092;51.996;4.458;2024-02-21T15:00:37;10.80;99.90
25112;DHT22;13092;51.996;4.458;2024-02-21T15:03:07;10.80;99.90
25112;DHT22;13092;51.996;4.458;2024-02-21T15:05:39;10.90;99.90
25112;DHT22;13092;51.996;4.458;2024-02-21T15:08:08;10.80;99.90
25112;DHT22;13092;51.996;4.458;2024-02-21T15:10:37;10.80;99.90
25112;DHT22;13092;51.996;4.458;2024-02-21T15:13:05;11.00;99.90
25112;DHT22;13092;51.996;4.458;2024-02-21T15:15:36;10.80;99.90
25112;DHT22;13092;51.996;4.458;2024-02-21T15:18:09;11.10;99.90
25112;DHT22;13092;51.996;4.458;2024-02-21T15:20:40;10.90;99.90
25112;DHT22;13092;51.996;4.458;2024-02-21T15:23:08;10.70;99.90
25112;DHT22;13092;51.996;4.458;2024-02-21T15:25:36;10.60;99.90
25112;DHT22;13092;51.996;4.458;2024-02-21T15:28:05;10.80;99.90
25112;DHT22;13092;51.996;4.458;2024-02-21T15:30:33;11.00;99.90
25112;DHT22;13092;51.996;4.458;2024-02-21T15:33:02;10.80;99.90
25112;DHT22;13092;51.996;4.458;2024-02-21T15:35:32;10.70;99.90
25112;DHT22;13092;51.996;4.458;2024-02-21T15:38:03;10.70;99.90
25112;DHT22;13092;51.996;4.458;2024-02-21T15:40:36;10.70;99.90
25112;DHT22;13092;51.996;4.458;2024-02-21T15:43:04;10.70;99.90